sensor_id;sensor_type;location;lat;lon;timestamp;temperature;humidity
3408;DHT22;1717;50.240;8.406;2024-01-16T00:00:39;4.50;99.90
3408;DHT22;1717;50.240;8.406;2024-01-16T00:03:07;4.50;99.90
3408;DHT22;1717;50.240;8.406;2024-01-16T00:05:34;4.50;99.90
3408;DHT22;1717;50.240;8.406;2024-01-16T00:08:01;4.50;99.90
3408;DHT22;1717;50.240;8.406;2024-01-16T00:10:28;4.50;99.90
3408;DHT22;1717;50.240;8.406;2024-01-16T00:12:55;4.50;99.90
3408;DHT22;1717;50.240;8.406;2024-01-16T00:15:21;4.50;99.90
3408;DHT22;1717;50.240;8.406;2024-01-16T00:17:49;4.50;99.90
3408;DHT22;1717;50.240;8.406;2024-01-16T00:20:18;4.50;99.90
3408;DHT22;1717;50.240;8.406;2024-01-16T00:22:45;4.50;99.90
3408;DHT22;1717;50.240;8.406;2024-01-16T00:25:11;4.50;99.90
3408;DHT22;1717;50.240;8.406;2024-01-16T00:27:39;4.50;99.90
3408;DHT22;1717;50.240;8.406;2024-01-16T00:30:07;4.50;99.90
3408;DHT22;1717;50.240;8.406;2024-01-16T00:32:35;4.50;99.90
3408;DHT22;1717;50.240;8.406;2024-01-16T00:35:03;4.50;99.90
3408;DHT22;1717;50.240;8.406;2024-01-16T00:37:31;4.60;99.90
3408;DHT22;1717;50.240;8.406;2024-01-16T00:39:58;4.60;99.90
3408;DHT22;1717;50.240;8.406;2024-01-16T00:42:24;4.60;99.90
3408;DHT22;1717;50.240;8.406;2024-01-16T00:44:51;4.60;99.90
3408;DHT22;1717;50.240;8.406;2024-01-16T00:47:18;4.70;99.90
3408;DHT22;1717;50.240;8.406;2024-01-16T00:49:45;4.70;99.90
3408;DHT22;1717;50.240;8.406;2024-01-16T00:52:12;4.70;99.90
3408;DHT22;1717;50.240;8.406;2024-01-16T00:54:40;4.80;99.90
3408;DHT22;1717;50.240;8.406;2024-01-16T00:57:07;4.70;99.90
3408;DHT22;1717;50.240;8.406;2024-01-16T00:59:34;4.70;99.90
3408;DHT22;1717;50.240;8.406;2024-01-16T01:02:01;4.60;99.90
3408;DHT22;1717;50.240;8.406;2024-01-16T01:04:29;4.60;99.90
3408;DHT22;1717;50.240;8.406;2024-01-16T01:06:57;4.50;99.90
3408;DHT22;1717;50.240;8.406;2024-01-16T01:09:24;4.60;99.90
3408;DHT22;1717;50.240;8.406;2024-01-16T01:11:52;4.70;99.90
3408;DHT22;1717;50.240;8.406;2024-01-16T01:14:19;4.60;99.90
3408;DHT22;1717;50.240;8.406;2024-01-16T01:16:46;4.70;99.90
3408;DHT22;1717;50.240;8.406;2024-01-16T01:19:13;4.70;99.90
3408;DHT22;1717;50.240;8.406;2024-01-16T01:21:40;4.70;99.90
3408;DHT22;1717;50.240;8.406;2024-01-16T01:24:07;4.80;99.90
3408;DHT22;1717;50.240;8.406;2024-01-16T01:26:34;4.80;99.90
3408;DHT22;1717;50.240;8.406;2024-01-16T01:29:02;4.80;99.90
3408;DHT22;1717;50.240;8.406;2024-01-16T01:31:29;4.70;99.90
3408;DHT22;1717;50.240;8.406;2024-01-16T01:33:56;4.80;99.90
3408;DHT22;1717;50.240;8.406;2024-01-16T01:36:23;4.70;99.90
3408;DHT22;1717;50.240;8.406;2024-01-16T01:38:50;4.80;99.90
3408;DHT22;1717;50.240;8.406;2024-01-16T01:41:17;4.80;99.90
3408;DHT22;1717;50.240;8.406;2024-01-16T01:43:44;4.80;99.90
3408;DHT22;1717;50.240;8.406;2024-01-16T01:46:14;4.80;99.90
3408;DHT22;1717;50.240;8.406;2024-01-16T01:48:43;4.70;99.90
3408;DHT22;1717;50.240;8.406;2024-01-16T01:51:11;4.70;99.90
3408;DHT22;1717;50.240;8.406;2024-01-16T01:53:39;4.70;99.90
3408;DHT22;1717;50.240;8.406;2024-01-16T01:56:09;4.70;99.90
3408;DHT22;1717;50.240;8.406;2024-01-16T01:58:37;4.70;99.90
3408;DHT22;1717;50.240;8.406;2024-01-16T02:01:05;4.70;99.90
3408;DHT22;1717;50.240;8.406;2024-01-16T02:03:38;4.60;99.90
3408;DHT22;1717;50.240;8.406;2024-01-16T02:06:06;4.60;99.90
3408;DHT22;1717;50.240;8.406;2024-01-16T02:08:33;4.70;99.90
3408;DHT22;1717;50.240;8.406;2024-01-16T02:11:00;4.60;99.90
3408;DHT22;1717;50.240;8.406;2024-01-16T02:13:28;4.60;99.90
3408;DHT22;1717;50.240;8.406;2024-01-16T02:15:55;4.60;99.90
3408;DHT22;1717;50.240;8.406;2024-01-16T02:18:22;4.50;99.90
3408;DHT22;1717;50.240;8.406;2024-01-16T02:20:50;4.40;99.90
3408;DHT22;1717;50.240;8.406;2024-01-16T02:23:25;4.40;99.90
3408;DHT22;1717;50.240;8.406;2024-01-16T02:25:53;4.50;99.90
3408;DHT22;1717;50.240;8.406;2024-01-16T02:28:20;4.50;99.90
3408;DHT22;1717;50.240;8.406;2024-01-16T02:30:46;4.50;99.90
3408;DHT22;1717;50.240;8.406;2024-01-16T02:33:13;4.40;99.90
3408;DHT22;1717;50.240;8.406;2024-01-16T02:35:40;4.50;99.90
3408;DHT22;1717;50.240;8.406;2024-01-16T02:38:07;4.40;99.90
3408;DHT22;1717;50.240;8.406;2024-01-16T02:40:35;4.40;99.90
3408;DHT22;1717;50.240;8.406;2024-01-16T02:43:02;4.30;99.90
3408;DHT22;1717;50.240;8.406;2024-01-16T02:45:29;4.30;99.90
3408;DHT22;1717;50.240;8.406;2024-01-16T02:47:55;4.40;99.90
3408;DHT22;1717;50.240;8.406;2024-01-16T02:50:22;4.40;99.90
3408;DHT22;1717;50.240;8.406;2024-01-16T02:52:49;4.30;99.90
3408;DHT22;1717;50.240;8.406;2024-01-16T02:55:16;4.40;99.90
3408;DHT22;1717;50.240;8.406;2024-01-16T02:57:44;4.40;99.90
3408;DHT22;1717;50.240;8.406;2024-01-16T03:00:12;4.40;99.90
3408;DHT22;1717;50.240;8.406;2024-01-16T03:02:39;4.30;99.90
3408;DHT22;1717;50.240;8.406;2024-01-16T03:05:06;4.30;99.90
3408;DHT22;1717;50.240;8.406;2024-01-16T03:07:33;4.40;99.90
3408;DHT22;1717;50.240;8.406;2024-01-16T03:10:00;4.40;99.90
3408;DHT22;1717;50.240;8.406;2024-01-16T03:12:27;4.40;99.90
3408;DHT22;1717;50.240;8.406;2024-01-16T03:14:55;4.40;99.90
3408;DHT22;1717;50.240;8.406;2024-01-16T03:17:22;4.40;99.90
3408;DHT22;1717;50.240;8.406;2024-01-16T03:19:49;4.40;99.90
3408;DHT22;1717;50.240;8.406;2024-01-16T03:22:16;4.40;99.90
3408;DHT22;1717;50.240;8.406;2024-01-16T03:24:44;4.50;99.90
3408;DHT22;1717;50.240;8.406;2024-01-16T03:27:10;4.40;99.90
3408;DHT22;1717;50.240;8.406;2024-01-16T03:29:37;4.40;99.90
3408;DHT22;1717;50.240;8.406;2024-01-16T03:32:05;4.40;99.90
3408;DHT22;1717;50.240;8.406;2024-01-16T03:34:32;4.30;99.90
3408;DHT22;1717;50.240;8.406;2024-01-16T03:36:59;4.40;99.90
3408;DHT22;1717;50.240;8.406;2024-01-16T03:39:26;4.40;99.90
3408;DHT22;1717;50.240;8.406;2024-01-16T03:41:53;4.50;99.90
3408;DHT22;1717;50.240;8.406;2024-01-16T03:44:19;4.60;99.90
3408;DHT22;1717;50.240;8.406;2024-01-16T03:46:46;4.60;99.90
3408;DHT22;1717;50.240;8.406;2024-01-16T03:49:14;4.60;99.90
3408;DHT22;1717;50.240;8.406;2024-01-16T03:51:41;4.60;99.90
3408;DHT22;1717;50.240;8.406;2024-01-16T03:54:11;4.60;99.90
3408;DHT22;1717;50.240;8.406;2024-01-16T03:56:38;4.50;99.90
3408;DHT22;1717;50.240;8.406;2024-01-16T03:59:06;4.60;99.90
3408;DHT22;1717;50.240;8.406;2024-01-16T04:01:33;4.60;99.90
3408;DHT22;1717;50.240;8.406;2024-01-16T04:04:02;4.60;99.90
3408;DHT22;1717;50.240;8.406;2024-01-16T04:06:33;4.50;99.90
3408;DHT22;1717;50.240;8.406;2024-01-16T04:09:00;4.60;99.90
3408;DHT22;1717;50.240;8.406;2024-01-16T04:11:27;4.60;99.90
3408;DHT22;1717;50.240;8.406;2024-01-16T04:13:54;4.50;99.90
3408;DHT22;1717;50.240;8.406;2024-01-16T04:16:20;4.60;99.90
3408;DHT22;1717;50.240;8.406;2024-01-16T04:18:48;4.60;99.90
3408;DHT22;1717;50.240;8.406;2024-01-16T04:21:14;4.60;99.90
3408;DHT22;1717;50.240;8.406;2024-01-16T04:23:43;4.50;99.90
3408;DHT22;1717;50.240;8.406;2024-01-16T04:26:09;4.50;99.90
3408;DHT22;1717;50.240;8.406;2024-01-16T04:28:36;4.50;99.90
3408;DHT22;1717;50.240;8.406;2024-01-16T04:31:03;4.60;99.90
3408;DHT22;1717;50.240;8.406;2024-01-16T04:33:31;4.50;99.90
3408;DHT22;1717;50.240;8.406;2024-01-16T04:35:58;4.30;99.90
3408;DHT22;1717;50.240;8.406;2024-01-16T04:38:24;4.60;99.90
3408;DHT22;1717;50.240;8.406;2024-01-16T04:40:53;4.50;99.90
3408;DHT22;1717;50.240;8.406;2024-01-16T04:43:19;4.60;99.90
3408;DHT22;1717;50.240;8.406;2024-01-16T04:45:46;4.60;99.90
3408;DHT22;1717;50.240;8.406;2024-01-16T04:48:13;4.60;99.90
3408;DHT22;1717;50.240;8.406;2024-01-16T04:50:40;4.60;99.90
3408;DHT22;1717;50.240;8.406;2024-01-16T04:53:06;4.60;99.90
3408;DHT22;1717;50.240;8.406;2024-01-16T04:55:33;4.60;99.90
3408;DHT22;1717;50.240;8.406;2024-01-16T04:58:02;4.70;99.90
3408;DHT22;1717;50.240;8.406;2024-01-16T05:00:29;4.70;99.90
3408;DHT22;1717;50.240;8.406;2024-01-16T05:02:56;4.70;99.90
3408;DHT22;1717;50.240;8.406;2024-01-16T05:05:23;4.70;99.90
3408;DHT22;1717;50.240;8.406;2024-01-16T05:07:49;4.70;99.90
3408;DHT22;1717;50.240;8.406;2024-01-16T05:10:16;4.70;99.90
3408;DHT22;1717;50.240;8.406;2024-01-16T05:12:43;4.70;99.90
3408;DHT22;1717;50.240;8.406;2024-01-16T05:15:11;4.60;99.90
3408;DHT22;1717;50.240;8.406;2024-01-16T05:17:38;4.60;99.90
3408;DHT22;1717;50.240;8.406;2024-01-16T05:20:06;4.60;99.90
3408;DHT22;1717;50.240;8.406;2024-01-16T05:22:33;4.60;99.90
3408;DHT22;1717;50.240;8.406;2024-01-16T05:25:00;4.60;99.90
3408;DHT22;1717;50.240;8.406;2024-01-16T05:27:27;4.70;99.90
3408;DHT22;1717;50.240;8.406;2024-01-16T05:29:55;4.70;99.90
3408;DHT22;1717;50.240;8.406;2024-01-16T05:32:23;4.70;99.90
3408;DHT22;1717;50.240;8.406;2024-01-16T05:34:50;4.70;99.90
3408;DHT22;1717;50.240;8.406;2024-01-16T05:37:17;4.70;99.90
3408;DHT22;1717;50.240;8.406;2024-01-16T05:39:44;4.60;99.90
3408;DHT22;1717;50.240;8.406;2024-01-16T05:42:11;4.60;99.90
3408;DHT22;1717;50.240;8.406;2024-01-16T05:44:38;4.60;99.90
3408;DHT22;1717;50.240;8.406;2024-01-16T05:47:05;4.60;99.90
3408;DHT22;1717;50.240;8.406;2024-01-16T05:49:33;4.60;99.90
3408;DHT22;1717;50.240;8.406;2024-01-16T05:52:00;4.60;99.90
3408;DHT22;1717;50.240;8.406;2024-01-16T05:54:27;4.60;99.90
3408;DHT22;1717;50.240;8.406;2024-01-16T05:56:54;4.60;99.90
3408;DHT22;1717;50.240;8.406;2024-01-16T05:59:21;4.60;99.90
3408;DHT22;1717;50.240;8.406;2024-01-16T06:01:48;4.70;99.90
3408;DHT22;1717;50.240;8.406;2024-01-16T06:04:15;4.60;99.90
3408;DHT22;1717;50.240;8.406;2024-01-16T06:06:44;4.60;99.90
3408;DHT22;1717;50.240;8.406;2024-01-16T06:09:13;4.60;99.90
3408;DHT22;1717;50.240;8.406;2024-01-16T06:11:41;4.60;99.90
3408;DHT22;1717;50.240;8.406;2024-01-16T06:14:08;4.50;99.90
3408;DHT22;1717;50.240;8.406;2024-01-16T06:16:35;4.50;99.90
3408;DHT22;1717;50.240;8.406;2024-01-16T06:19:02;4.50;99.90
3408;DHT22;1717;50.240;8.406;2024-01-16T06:21:28;4.50;99.90
3408;DHT22;1717;50.240;8.406;2024-01-16T06:23:56;4.50;99.90
3408;DHT22;1717;50.240;8.406;2024-01-16T06:26:23;4.40;99.90
3408;DHT22;1717;50.240;8.406;2024-01-16T06:28:50;4.50;99.90
3408;DHT22;1717;50.240;8.406;2024-01-16T06:31:17;4.50;99.90
3408;DHT22;1717;50.240;8.406;2024-01-16T06:33:44;4.50;99.90
3408;DHT22;1717;50.240;8.406;2024-01-16T06:36:11;4.50;99.90
3408;DHT22;1717;50.240;8.406;2024-01-16T06:38:38;4.50;99.90
3408;DHT22;1717;50.240;8.406;2024-01-16T06:41:07;4.50;99.90
3408;DHT22;1717;50.240;8.406;2024-01-16T06:43:34;4.50;99.90
3408;DHT22;1717;50.240;8.406;2024-01-16T06:46:05;4.60;99.90
3408;DHT22;1717;50.240;8.406;2024-01-16T06:48:31;4.60;99.90
3408;DHT22;1717;50.240;8.406;2024-01-16T06:50:58;4.80;99.90
3408;DHT22;1717;50.240;8.406;2024-01-16T06:53:26;4.60;99.90
3408;DHT22;1717;50.240;8.406;2024-01-16T06:55:53;4.60;99.90
3408;DHT22;1717;50.240;8.406;2024-01-16T06:58:21;4.60;99.90
3408;DHT22;1717;50.240;8.406;2024-01-16T07:00:48;4.60;99.90
3408;DHT22;1717;50.240;8.406;2024-01-16T07:03:15;4.60;99.90
3408;DHT22;1717;50.240;8.406;2024-01-16T07:05:42;4.60;99.90
3408;DHT22;1717;50.240;8.406;2024-01-16T07:08:09;4.20;99.90
3408;DHT22;1717;50.240;8.406;2024-01-16T07:10:36;3.90;99.90
3408;DHT22;1717;50.240;8.406;2024-01-16T07:13:03;3.70;99.90
3408;DHT22;1717;50.240;8.406;2024-01-16T07:15:32;3.40;99.90
3408;DHT22;1717;50.240;8.406;2024-01-16T07:17:58;3.20;99.90
3408;DHT22;1717;50.240;8.406;2024-01-16T07:20:25;3.10;99.90
3408;DHT22;1717;50.240;8.406;2024-01-16T07:22:52;2.90;99.90
3408;DHT22;1717;50.240;8.406;2024-01-16T07:25:19;2.70;99.90
3408;DHT22;1717;50.240;8.406;2024-01-16T07:27:46;2.40;99.90
3408;DHT22;1717;50.240;8.406;2024-01-16T07:30:15;2.30;99.90
3408;DHT22;1717;50.240;8.406;2024-01-16T07:32:43;2.20;99.90
3408;DHT22;1717;50.240;8.406;2024-01-16T07:35:10;2.10;99.90
3408;DHT22;1717;50.240;8.406;2024-01-16T07:37:37;2.10;99.90
3408;DHT22;1717;50.240;8.406;2024-01-16T07:40:05;2.00;99.90
3408;DHT22;1717;50.240;8.406;2024-01-16T07:42:35;1.90;99.90
3408;DHT22;1717;50.240;8.406;2024-01-16T07:45:02;1.80;99.90
3408;DHT22;1717;50.240;8.406;2024-01-16T07:47:30;1.60;99.90
3408;DHT22;1717;50.240;8.406;2024-01-16T07:49:58;1.60;99.90
3408;DHT22;1717;50.240;8.406;2024-01-16T07:52:27;1.50;99.90
3408;DHT22;1717;50.240;8.406;2024-01-16T07:54:54;1.50;99.90
3408;DHT22;1717;50.240;8.406;2024-01-16T07:57:21;1.50;99.90
3408;DHT22;1717;50.240;8.406;2024-01-16T07:59:48;1.40;99.90
3408;DHT22;1717;50.240;8.406;2024-01-16T08:02:15;1.30;99.90
3408;DHT22;1717;50.240;8.406;2024-01-16T08:04:42;1.30;99.90
3408;DHT22;1717;50.240;8.406;2024-01-16T08:07:11;1.30;99.90
3408;DHT22;1717;50.240;8.406;2024-01-16T08:09:37;1.60;99.90
3408;DHT22;1717;50.240;8.406;2024-01-16T08:12:05;1.50;99.90
3408;DHT22;1717;50.240;8.406;2024-01-16T08:14:32;1.60;99.90
3408;DHT22;1717;50.240;8.406;2024-01-16T08:16:59;1.70;99.90
3408;DHT22;1717;50.240;8.406;2024-01-16T08:19:25;1.70;99.90
3408;DHT22;1717;50.240;8.406;2024-01-16T08:21:52;1.70;99.90
3408;DHT22;1717;50.240;8.406;2024-01-16T08:24:20;1.80;99.90
3408;DHT22;1717;50.240;8.406;2024-01-16T08:26:48;1.90;99.90
3408;DHT22;1717;50.240;8.406;2024-01-16T08:29:15;1.90;99.90
3408;DHT22;1717;50.240;8.406;2024-01-16T08:31:42;1.70;99.90
3408;DHT22;1717;50.240;8.406;2024-01-16T08:34:09;1.80;99.90
3408;DHT22;1717;50.240;8.406;2024-01-16T08:36:35;1.80;99.90
3408;DHT22;1717;50.240;8.406;2024-01-16T08:39:02;1.90;99.90
3408;DHT22;1717;50.240;8.406;2024-01-16T08:41:32;1.90;99.90
3408;DHT22;1717;50.240;8.406;2024-01-16T08:43:59;1.90;99.90
3408;DHT22;1717;50.240;8.406;2024-01-16T08:46:26;2.00;99.90
3408;DHT22;1717;50.240;8.406;2024-01-16T08:48:53;1.90;99.90
3408;DHT22;1717;50.240;8.406;2024-01-16T08:51:20;1.80;99.90
3408;DHT22;1717;50.240;8.406;2024-01-16T08:53:46;1.60;99.90
3408;DHT22;1717;50.240;8.406;2024-01-16T08:56:13;1.50;99.90
3408;DHT22;1717;50.240;8.406;2024-01-16T08:58:43;1.60;99.90
3408;DHT22;1717;50.240;8.406;2024-01-16T09:01:11;1.60;99.90
3408;DHT22;1717;50.240;8.406;2024-01-16T09:03:38;1.60;99.90
3408;DHT22;1717;50.240;8.406;2024-01-16T09:06:05;1.60;99.90
3408;DHT22;1717;50.240;8.406;2024-01-16T09:08:32;1.60;99.90
3408;DHT22;1717;50.240;8.406;2024-01-16T09:10:59;1.70;99.90
3408;DHT22;1717;50.240;8.406;2024-01-16T09:13:26;1.70;99.90
3408;DHT22;1717;50.240;8.406;2024-01-16T09:15:54;1.80;99.90
3408;DHT22;1717;50.240;8.406;2024-01-16T09:18:20;1.80;99.90
3408;DHT22;1717;50.240;8.406;2024-01-16T09:20:48;1.70;99.90
3408;DHT22;1717;50.240;8.406;2024-01-16T09:23:15;1.70;99.90
3408;DHT22;1717;50.240;8.406;2024-01-16T09:25:42;1.60;99.90
3408;DHT22;1717;50.240;8.406;2024-01-16T09:28:09;1.70;99.90
3408;DHT22;1717;50.240;8.406;2024-01-16T09:30:35;1.80;99.90
3408;DHT22;1717;50.240;8.406;2024-01-16T09:33:04;1.80;99.90
3408;DHT22;1717;50.240;8.406;2024-01-16T09:35:32;1.80;99.90
3408;DHT22;1717;50.240;8.406;2024-01-16T09:38:00;1.80;99.90
3408;DHT22;1717;50.240;8.406;2024-01-16T09:40:27;1.80;99.90
3408;DHT22;1717;50.240;8.406;2024-01-16T09:42:54;1.60;99.90
3408;DHT22;1717;50.240;8.406;2024-01-16T09:45:21;1.50;99.90
3408;DHT22;1717;50.240;8.406;2024-01-16T09:47:50;1.60;99.90
3408;DHT22;1717;50.240;8.406;2024-01-16T09:50:18;1.60;99.90
3408;DHT22;1717;50.240;8.406;2024-01-16T09:52:46;1.50;99.90
3408;DHT22;1717;50.240;8.406;2024-01-16T09:55:13;1.50;99.90
3408;DHT22;1717;50.240;8.406;2024-01-16T09:57:41;1.60;99.90
3408;DHT22;1717;50.240;8.406;2024-01-16T10:00:09;1.70;99.90
3408;DHT22;1717;50.240;8.406;2024-01-16T10:02:38;1.60;99.90
3408;DHT22;1717;50.240;8.406;2024-01-16T10:05:06;1.60;99.90
3408;DHT22;1717;50.240;8.406;2024-01-16T10:07:36;1.50;99.90
3408;DHT22;1717;50.240;8.406;2024-01-16T10:10:04;1.70;99.90
3408;DHT22;1717;50.240;8.406;2024-01-16T10:12:31;1.70;99.90
3408;DHT22;1717;50.240;8.406;2024-01-16T10:14:58;1.70;99.90
3408;DHT22;1717;50.240;8.406;2024-01-16T10:17:35;1.80;99.90
3408;DHT22;1717;50.240;8.406;2024-01-16T10:20:03;1.90;99.90
3408;DHT22;1717;50.240;8.406;2024-01-16T10:22:30;1.90;99.90
3408;DHT22;1717;50.240;8.406;2024-01-16T10:25:09;1.90;99.90
3408;DHT22;1717;50.240;8.406;2024-01-16T10:27:38;2.00;99.90
3408;DHT22;1717;50.240;8.406;2024-01-16T10:30:06;2.00;99.90
3408;DHT22;1717;50.240;8.406;2024-01-16T10:32:35;2.10;99.90
3408;DHT22;1717;50.240;8.406;2024-01-16T10:35:04;2.10;99.90
3408;DHT22;1717;50.240;8.406;2024-01-16T10:37:40;2.10;99.90
3408;DHT22;1717;50.240;8.406;2024-01-16T10:40:09;2.00;99.90
3408;DHT22;1717;50.240;8.406;2024-01-16T10:42:37;2.00;99.90
3408;DHT22;1717;50.240;8.406;2024-01-16T10:45:05;2.00;99.90
3408;DHT22;1717;50.240;8.406;2024-01-16T10:47:32;2.00;99.90
3408;DHT22;1717;50.240;8.406;2024-01-16T10:50:03;2.10;99.90
3408;DHT22;1717;50.240;8.406;2024-01-16T10:52:33;2.10;99.90
3408;DHT22;1717;50.240;8.406;2024-01-16T10:55:00;2.00;99.90
3408;DHT22;1717;50.240;8.406;2024-01-16T10:57:32;2.10;99.90
3408;DHT22;1717;50.240;8.406;2024-01-16T11:00:03;2.20;99.90
3408;DHT22;1717;50.240;8.406;2024-01-16T11:02:40;2.10;99.90
3408;DHT22;1717;50.240;8.406;2024-01-16T11:05:11;2.10;99.90
3408;DHT22;1717;50.240;8.406;2024-01-16T11:07:40;2.20;99.90
3408;DHT22;1717;50.240;8.406;2024-01-16T11:10:08;2.20;99.90
3408;DHT22;1717;50.240;8.406;2024-01-16T11:12:38;2.30;99.90
3408;DHT22;1717;50.240;8.406;2024-01-16T11:15:07;2.30;99.90
3408;DHT22;1717;50.240;8.406;2024-01-16T11:17:35;2.40;99.90
3408;DHT22;1717;50.240;8.406;2024-01-16T11:20:04;2.50;99.90
3408;DHT22;1717;50.240;8.406;2024-01-16T11:22:36;2.60;99.90
3408;DHT22;1717;50.240;8.406;2024-01-16T11:25:07;2.70;99.90
3408;DHT22;1717;50.240;8.406;2024-01-16T11:27:37;2.80;99.90
3408;DHT22;1717;50.240;8.406;2024-01-16T11:30:05;2.90;99.90
3408;DHT22;1717;50.240;8.406;2024-01-16T11:32:34;3.00;99.90
3408;DHT22;1717;50.240;8.406;2024-01-16T11:35:02;3.00;99.90
3408;DHT22;1717;50.240;8.406;2024-01-16T11:37:30;3.10;99.90
3408;DHT22;1717;50.240;8.406;2024-01-16T11:40:21;3.10;99.90
3408;DHT22;1717;50.240;8.406;2024-01-16T11:42:50;3.20;99.90
3408;DHT22;1717;50.240;8.406;2024-01-16T11:45:52;3.30;99.90
3408;DHT22;1717;50.240;8.406;2024-01-16T11:48:19;3.40;99.90
3408;DHT22;1717;50.240;8.406;2024-01-16T11:50:47;3.50;99.90
3408;DHT22;1717;50.240;8.406;2024-01-16T11:53:36;3.50;99.90
3408;DHT22;1717;50.240;8.406;2024-01-16T11:59:55;3.60;99.90
3408;DHT22;1717;50.240;8.406;2024-01-16T12:02:29;3.60;99.90
3408;DHT22;1717;50.240;8.406;2024-01-16T12:05:00;3.60;99.90
3408;DHT22;1717;50.240;8.406;2024-01-16T12:07:42;3.70;99.90
3408;DHT22;1717;50.240;8.406;2024-01-16T12:10:09;3.70;99.90
3408;DHT22;1717;50.240;8.406;2024-01-16T12:12:36;3.80;99.90
3408;DHT22;1717;50.240;8.406;2024-01-16T12:15:05;3.80;99.90
3408;DHT22;1717;50.240;8.406;2024-01-16T12:17:32;3.90;99.90
3408;DHT22;1717;50.240;8.406;2024-01-16T12:20:00;3.90;99.90
3408;DHT22;1717;50.240;8.406;2024-01-16T12:22:27;3.90;99.90
3408;DHT22;1717;50.240;8.406;2024-01-16T12:24:56;3.90;99.90
3408;DHT22;1717;50.240;8.406;2024-01-16T12:27:24;3.90;99.90
3408;DHT22;1717;50.240;8.406;2024-01-16T12:30:06;3.90;99.90
3408;DHT22;1717;50.240;8.406;2024-01-16T12:32:33;3.90;99.90
3408;DHT22;1717;50.240;8.406;2024-01-16T12:35:00;4.00;99.90
3408;DHT22;1717;50.240;8.406;2024-01-16T12:37:27;4.00;99.90
3408;DHT22;1717;50.240;8.406;2024-01-16T12:39:55;4.10;99.90
3408;DHT22;1717;50.240;8.406;2024-01-16T12:42:23;4.20;99.90
3408;DHT22;1717;50.240;8.406;2024-01-16T12:44:51;4.30;99.90
3408;DHT22;1717;50.240;8.406;2024-01-16T12:47:19;4.40;99.90
3408;DHT22;1717;50.240;8.406;2024-01-16T12:49:47;4.40;99.90
3408;DHT22;1717;50.240;8.406;2024-01-16T12:52:18;4.50;99.90
3408;DHT22;1717;50.240;8.406;2024-01-16T12:54:46;4.50;99.90
3408;DHT22;1717;50.240;8.406;2024-01-16T12:57:17;4.60;99.90
3408;DHT22;1717;50.240;8.406;2024-01-16T12:59:45;4.60;99.90
3408;DHT22;1717;50.240;8.406;2024-01-16T13:02:21;4.60;99.90
3408;DHT22;1717;50.240;8.406;2024-01-16T13:04:55;4.60;99.90
3408;DHT22;1717;50.240;8.406;2024-01-16T13:07:22;4.70;99.90
3408;DHT22;1717;50.240;8.406;2024-01-16T13:09:49;4.70;99.90
3408;DHT22;1717;50.240;8.406;2024-01-16T13:12:20;4.70;99.90
3408;DHT22;1717;50.240;8.406;2024-01-16T13:14:47;4.50;99.90
3408;DHT22;1717;50.240;8.406;2024-01-16T13:17:14;4.30;99.70
3408;DHT22;1717;50.240;8.406;2024-01-16T13:19:42;4.00;97.90
3408;DHT22;1717;50.240;8.406;2024-01-16T13:22:09;4.10;96.40
3408;DHT22;1717;50.240;8.406;2024-01-16T13:24:36;3.70;96.00
3408;DHT22;1717;50.240;8.406;2024-01-16T13:27:03;3.40;96.20
3408;DHT22;1717;50.240;8.406;2024-01-16T13:29:33;3.20;96.60
3408;DHT22;1717;50.240;8.406;2024-01-16T13:32:01;2.80;98.10
3408;DHT22;1717;50.240;8.406;2024-01-16T13:34:28;2.80;98.50
3408;DHT22;1717;50.240;8.406;2024-01-16T13:36:58;2.70;98.80
3408;DHT22;1717;50.240;8.406;2024-01-16T13:39:27;2.70;99.90
3408;DHT22;1717;50.240;8.406;2024-01-16T13:41:54;2.60;99.10
3408;DHT22;1717;50.240;8.406;2024-01-16T13:44:20;2.50;99.00
3408;DHT22;1717;50.240;8.406;2024-01-16T13:46:47;2.60;99.90
3408;DHT22;1717;50.240;8.406;2024-01-16T13:49:14;2.60;99.90
3408;DHT22;1717;50.240;8.406;2024-01-16T13:51:44;2.60;99.90
3408;DHT22;1717;50.240;8.406;2024-01-16T13:54:12;2.60;99.60
3408;DHT22;1717;50.240;8.406;2024-01-16T13:56:39;2.70;99.00
3408;DHT22;1717;50.240;8.406;2024-01-16T13:59:06;2.50;99.90
3408;DHT22;1717;50.240;8.406;2024-01-16T14:01:33;2.30;99.90
3408;DHT22;1717;50.240;8.406;2024-01-16T14:03:59;2.40;99.90
3408;DHT22;1717;50.240;8.406;2024-01-16T14:06:26;2.40;99.90
3408;DHT22;1717;50.240;8.406;2024-01-16T14:08:53;2.20;99.90
3408;DHT22;1717;50.240;8.406;2024-01-16T14:11:21;2.40;99.90
3408;DHT22;1717;50.240;8.406;2024-01-16T14:13:48;2.30;99.90
3408;DHT22;1717;50.240;8.406;2024-01-16T14:16:15;2.30;99.90
3408;DHT22;1717;50.240;8.406;2024-01-16T14:18:42;2.10;99.90
3408;DHT22;1717;50.240;8.406;2024-01-16T14:21:09;2.00;99.90
3408;DHT22;1717;50.240;8.406;2024-01-16T14:23:36;2.00;99.90
3408;DHT22;1717;50.240;8.406;2024-01-16T14:26:03;2.10;99.90
3408;DHT22;1717;50.240;8.406;2024-01-16T14:28:32;2.10;99.90
3408;DHT22;1717;50.240;8.406;2024-01-16T14:30:59;2.00;99.90
3408;DHT22;1717;50.240;8.406;2024-01-16T14:33:26;2.10;99.90
3408;DHT22;1717;50.240;8.406;2024-01-16T14:35:53;2.10;99.90
3408;DHT22;1717;50.240;8.406;2024-01-16T14:38:20;2.30;99.90
3408;DHT22;1717;50.240;8.406;2024-01-16T14:40:47;2.20;99.90
3408;DHT22;1717;50.240;8.406;2024-01-16T14:43:17;2.20;99.90
3408;DHT22;1717;50.240;8.406;2024-01-16T14:45:45;2.20;99.90
3408;DHT22;1717;50.240;8.406;2024-01-16T14:48:12;2.00;99.90
3408;DHT22;1717;50.240;8.406;2024-01-16T14:50:40;2.00;99.90
3408;DHT22;1717;50.240;8.406;2024-01-16T14:53:06;1.90;99.90
3408;DHT22;1717;50.240;8.406;2024-01-16T14:55:34;1.90;99.90
3408;DHT22;1717;50.240;8.406;2024-01-16T14:58:00;1.90;99.90
3408;DHT22;1717;50.240;8.406;2024-01-16T15:00:27;1.90;99.90
3408;DHT22;1717;50.240;8.406;2024-01-16T15:02:57;1.90;99.90
3408;DHT22;1717;50.240;8.406;2024-01-16T15:05:24;1.90;99.90
3408;DHT22;1717;50.240;8.406;2024-01-16T15:07:51;2.00;99.90
3408;DHT22;1717;50.240;8.406;2024-01-16T15:10:18;2.10;99.90
3408;DHT22;1717;50.240;8.406;2024-01-16T15:12:46;1.90;99.90
3408;DHT22;1717;50.240;8.406;2024-01-16T15:15:14;1.80;99.90
3408;DHT22;1717;50.240;8.406;2024-01-16T15:17:43;1.80;99.90
3408;DHT22;1717;50.240;8.406;2024-01-16T15:20:11;1.70;99.90
3408;DHT22;1717;50.240;8.406;2024-01-16T15:22:39;1.70;99.90
3408;DHT22;1717;50.240;8.406;2024-01-16T15:25:06;1.70;99.90
3408;DHT22;1717;50.240;8.406;2024-01-16T15:27:33;1.70;99.90
3408;DHT22;1717;50.240;8.406;2024-01-16T15:30:01;1.70;99.90
3408;DHT22;1717;50.240;8.406;2024-01-16T15:32:29;1.70;99.90
3408;DHT22;1717;50.240;8.406;2024-01-16T15:34:56;1.70;99.90
3408;DHT22;1717;50.240;8.406;2024-01-16T15:37:24;1.70;99.90
3408;DHT22;1717;50.240;8.406;2024-01-16T15:39:51;1.70;99.90
3408;DHT22;1717;50.240;8.406;2024-01-16T15:42:18;1.70;99.90
3408;DHT22;1717;50.240;8.406;2024-01-16T15:44:46;1.70;99.90
3408;DHT22;1717;50.240;8.406;2024-01-16T15:47:13;1.70;99.90
3408;DHT22;1717;50.240;8.406;2024-01-16T15:49:40;1.60;99.90
3408;DHT22;1717;50.240;8.406;2024-01-16T15:52:07;1.50;99.90
3408;DHT22;1717;50.240;8.406;2024-01-16T15:54:36;1.60;99.90
3408;DHT22;1717;50.240;8.406;2024-01-16T15:57:03;1.60;99.90
3408;DHT22;1717;50.240;8.406;2024-01-16T15:59:30;1.50;99.90
3408;DHT22;1717;50.240;8.406;2024-01-16T16:01:57;1.50;99.90
3408;DHT22;1717;50.240;8.406;2024-01-16T16:04:24;1.50;99.90
3408;DHT22;1717;50.240;8.406;2024-01-16T16:06:51;1.40;99.90
3408;DHT22;1717;50.240;8.406;2024-01-16T16:09:18;1.40;99.90
3408;DHT22;1717;50.240;8.406;2024-01-16T16:11:47;1.40;99.90
3408;DHT22;1717;50.240;8.406;2024-01-16T16:14:15;1.40;99.90
3408;DHT22;1717;50.240;8.406;2024-01-16T16:16:43;1.40;99.90
3408;DHT22;1717;50.240;8.406;2024-01-16T16:19:10;1.30;99.90
3408;DHT22;1717;50.240;8.406;2024-01-16T16:21:37;1.30;99.90
3408;DHT22;1717;50.240;8.406;2024-01-16T16:24:07;1.30;99.90